Time;durP1;ratioP1;P1;durP2;ratioP2;P2;SDS_P1;SDS_P2;PMS_P1;PMS_P2;Temp;Humidity;BMP_temperature;BMP_pressure;BME280_temperature;BME280_humidity;BME280_pressure;Samples;Min_cycle;Max_cycle;Signal;HPM_P1;HPM_P2
2023/08/31 00:00:00;;;;;;;19.05;13.13;;;;;;;11.12;100.00;100711.03;5021805;28;20026;-70
2023/08/31 00:02:25;;;;;;;19.65;13.50;;;;;;;11.09;100.00;100715.25;5019633;28;20056;-70
2023/08/31 00:04:53;;;;;;;19.30;13.70;;;;;;;11.08;100.00;100713.63;5021113;28;20026;-69
2023/08/31 00:07:18;;;;;;;20.05;14.10;;;;;;;11.06;100.00;100718.63;5019708;28;20296;-70
2023/08/31 00:09:44;;;;;;;20.45;13.95;;;;;;;11.07;100.00;100720.28;5024957;28;20105;-70
2023/08/31 00:12:10;;;;;;;19.58;14.15;;;;;;;11.02;100.00;100718.44;5025736;28;20365;-70
2023/08/31 00:14:37;;;;;;;19.50;13.88;;;;;;;11.03;100.00;100722.84;5021833;28;20095;-71
2023/08/31 00:17:03;;;;;;;19.75;13.45;;;;;;;10.99;100.00;100719.06;5019366;28;20407;-71
2023/08/31 00:19:29;;;;;;;20.90;14.50;;;;;;;10.98;100.00;100717.44;5019610;28;20461;-71
2023/08/31 00:21:55;;;;;;;20.52;13.88;;;;;;;10.92;100.00;100715.91;5020589;28;20083;-71
2023/08/31 00:24:21;;;;;;;19.00;13.90;;;;;;;10.90;100.00;100713.47;5019321;28;20045;-71
2023/08/31 00:26:50;;;;;;;19.25;13.30;;;;;;;10.93;100.00;100717.56;5027088;28;20043;-71
2023/08/31 00:29:16;;;;;;;20.50;14.55;;;;;;;10.85;100.00;100713.56;5025763;28;20028;-71
2023/08/31 00:31:44;;;;;;;23.35;15.40;;;;;;;10.85;100.00;100716.34;5022758;28;20029;-70
2023/08/31 00:34:17;;;;;;;20.70;15.00;;;;;;;10.85;100.00;100715.53;5021548;28;20044;-71
2023/08/31 00:36:43;;;;;;;20.70;14.40;;;;;;;10.82;100.00;100708.66;5023429;28;20037;-71
2023/08/31 00:39:10;;;;;;;21.98;15.70;;;;;;;10.83;100.00;100713.06;5031864;28;20303;-70
2023/08/31 00:41:36;;;;;;;20.73;14.75;;;;;;;10.81;100.00;100709.81;5028710;28;20025;-69
2023/08/31 00:44:04;;;;;;;22.05;16.70;;;;;;;10.80;100.00;100710.94;5029156;28;20443;-71
2023/08/31 00:46:31;;;;;;;22.05;16.30;;;;;;;10.76;100.00;100710.72;5024369;28;20108;-72
2023/08/31 00:48:56;;;;;;;21.75;16.20;;;;;;;10.74;100.00;100712.16;5022013;28;20069;-70
2023/08/31 00:51:21;;;;;;;22.77;17.05;;;;;;;10.69;100.00;100710.31;5024093;28;20061;-72
2023/08/31 00:53:48;;;;;;;22.95;17.45;;;;;;;10.67;100.00;100709.00;5026505;28;20041;-72
2023/08/31 00:56:13;;;;;;;22.73;17.05;;;;;;;10.63;100.00;100708.81;5032189;28;20034;-73
2023/08/31 00:58:40;;;;;;;23.45;17.40;;;;;;;10.66;100.00;100704.59;5023789;28;20029;-73
2023/08/31 01:01:22;;;;;;;22.80;16.92;;;;;;;10.63;100.00;100702.47;5023209;28;20106;-72
2023/08/31 01:04:06;;;;;;;23.33;16.85;;;;;;;10.60;100.00;100699.19;5022669;28;20037;-72
2023/08/31 01:06:50;;;;;;;;;;;;;;;10.64;100.00;100701.31;5020333;28;20595;-72
2023/08/31 01:09:46;;;;;;;23.92;17.98;;;;;;;10.58;100.00;100703.41;5023528;28;20395;-70
2023/08/31 01:12:18;;;;;;;23.13;16.27;;;;;;;10.54;100.00;100700.41;5025671;28;20083;-72
2023/08/31 01:15:13;;;;;;;23.33;16.77;;;;;;;10.53;100.00;100698.75;5022757;28;20033;-72
2023/08/31 01:17:46;;;;;;;24.55;17.38;;;;;;;10.54;100.00;100700.41;5022078;28;20131;-69
2023/08/31 01:20:16;;;;;;;24.47;17.67;;;;;;;10.48;100.00;100693.34;5020287;28;20038;-71
2023/08/31 01:23:10;;;;;;;24.90;18.42;;;;;;;10.50;100.00;100704.94;5022602;28;20336;-71
2023/08/31 01:25:36;;;;;;;;;;;;;;;10.52;100.00;100705.44;5024317;28;20156;-72
2023/08/31 01:28:03;;;;;;;23.35;18.13;;;;;;;10.48;100.00;100712.72;5027041;28;19972;-71
2023/08/31 01:30:32;;;;;;;24.48;18.45;;;;;;;10.52;100.00;100718.44;5022277;28;20037;-72
2023/08/31 01:32:57;;;;;;;23.15;17.73;;;;;;;10.54;100.00;100730.81;5022495;28;20036;-72
2023/08/31 01:35:24;;;;;;;23.70;17.42;;;;;;;10.58;100.00;100718.03;5023854;28;20059;-74
2023/08/31 01:38:10;;;;;;;23.95;17.83;;;;;;;10.56;100.00;100702.88;5025135;28;20091;-71
2023/08/31 01:40:44;;;;;;;23.45;17.88;;;;;;;10.64;100.00;100718.75;5023909;28;20033;-72
2023/08/31 01:43:11;;;;;;;23.98;18.00;;;;;;;10.63;100.00;100730.94;5021174;28;20034;-71
2023/08/31 01:45:37;;;;;;;24.40;18.08;;;;;;;10.66;100.00;100729.50;5021211;28;20025;-71
2023/08/31 01:48:04;;;;;;;24.45;17.65;;;;;;;10.66;100.00;100727.56;5021906;28;20026;-71
2023/08/31 01:50:29;;;;;;;22.75;16.80;;;;;;;10.71;100.00;100730.19;5022574;28;20035;-72
2023/08/31 01:52:55;;;;;;;23.58;18.08;;;;;;;10.72;100.00;100734.59;5022938;28;20104;-72
2023/08/31 01:55:24;;;;;;;23.55;17.15;;;;;;;10.74;100.00;100723.22;5024098;28;20036;-72
2023/08/31 01:57:50;;;;;;;22.60;17.10;;;;;;;10.74;100.00;100721.28;5023255;28;20517;-71
2023/08/31 02:00:17;;;;;;;23.63;17.13;;;;;;;10.74;100.00;100726.81;5022922;28;20034;-73
2023/08/31 02:02:42;;;;;;;22.98;17.00;;;;;;;10.73;100.00;100721.56;5021278;28;20044;-71
2023/08/31 02:05:08;;;;;;;22.10;16.80;;;;;;;10.73;100.00;100725.19;5034761;28;20033;-74
2023/08/31 02:07:33;;;;;;;23.08;17.67;;;;;;;10.73;100.00;100725.19;5020812;28;20046;-72
2023/08/31 02:09:59;;;;;;;24.00;17.80;;;;;;;10.75;100.00;100727.63;5026977;28;20048;-72
2023/08/31 02:12:24;;;;;;;23.88;17.10;;;;;;;10.79;100.00;100720.34;5027502;28;20029;-73
2023/08/31 02:14:50;;;;;;;23.75;17.70;;;;;;;10.82;100.00;100724.44;5021714;28;20025;-73
2023/08/31 02:17:15;;;;;;;23.27;18.00;;;;;;;10.82;100.00;100725.25;5019997;28;20033;-72
2023/08/31 02:19:40;;;;;;;24.30;18.05;;;;;;;10.83;100.00;100726.09;5024242;28;20021;-72
2023/08/31 02:22:06;;;;;;;22.90;17.45;;;;;;;10.86;100.00;100723.50;5024106;28;20022;-72
2023/08/31 02:24:31;;;;;;;23.70;17.17;;;;;;;10.86;100.00;100712.44;5031047;28;20025;-72
2023/08/31 02:26:56;;;;;;;24.27;17.75;;;;;;;10.86;100.00;100711.63;5031204;28;20056;-74
2023/08/31 02:29:22;;;;;;;22.77;17.65;;;;;;;10.88;100.00;100717.66;5024556;28;20044;-73
2023/08/31 02:31:48;;;;;;;23.52;17.00;;;;;;;10.88;100.00;100710.19;5021075;28;20484;-73
2023/08/31 02:34:13;;;;;;;22.90;17.95;;;;;;;10.93;100.00;100720.31;5022110;28;20469;-74
2023/08/31 02:36:39;;;;;;;23.10;17.45;;;;;;;10.97;100.00;100712.22;5021301;28;20047;-72
2023/08/31 02:39:04;;;;;;;22.85;17.48;;;;;;;10.99;100.00;100712.72;5023184;28;20053;-74
2023/08/31 02:41:30;;;;;;;22.52;17.33;;;;;;;11.02;100.00;100715.69;5023428;28;20048;-71
2023/08/31 02:43:55;;;;;;;22.90;17.42;;;;;;;11.05;100.00;100723.34;5021567;28;20500;-72
2023/08/31 02:46:20;;;;;;;23.63;17.42;;;;;;;11.07;100.00;100720.28;5019246;28;20141;-72
2023/08/31 02:48:46;;;;;;;22.83;17.08;;;;;;;11.08;100.00;100716.38;5019989;28;20113;-72
2023/08/31 02:51:11;;;;;;;23.00;17.20;;;;;;;11.07;100.00;100721.09;5021124;28;20030;-72
2023/08/31 02:53:37;;;;;;;22.23;17.73;;;;;;;11.10;100.00;100721.59;5025740;28;20033;-74
2023/08/31 02:56:02;;;;;;;23.88;18.30;;;;;;;11.06;100.00;100726.94;5023569;28;20040;-71
2023/08/31 02:58:28;;;;;;;24.35;18.70;;;;;;;11.02;100.00;100718.44;5023633;28;20361;-73
2023/08/31 03:00:53;;;;;;;25.35;19.27;;;;;;;11.00;100.00;100730.97;5018890;28;20057;-74
2023/08/31 03:03:19;;;;;;;24.02;17.80;;;;;;;10.98;100.00;100734.03;5022438;28;20048;-72
2023/08/31 03:05:45;;;;;;;23.90;18.35;;;;;;;10.97;100.00;100732.38;5021403;28;20029;-73
2023/08/31 03:08:10;;;;;;;23.75;18.55;;;;;;;10.90;100.00;100720.94;5024201;28;20037;-73
2023/08/31 03:10:36;;;;;;;25.48;18.42;;;;;;;10.94;100.00;100724.72;5022012;28;20426;-71
2023/08/31 03:13:02;;;;;;;24.05;19.13;;;;;;;10.91;100.00;100717.03;5025555;28;20065;-73
2023/08/31 03:15:27;;;;;;;26.67;19.17;;;;;;;10.90;100.00;100727.31;5021504;28;20056;-72
2023/08/31 03:17:53;;;;;;;25.65;18.95;;;;;;;10.86;100.00;100728.25;5020280;28;20060;-73
2023/08/31 03:20:18;;;;;;;25.25;19.77;;;;;;;10.79;100.00;100733.34;5022180;28;20104;-75
2023/08/31 03:22:43;;;;;;;25.92;19.80;;;;;;;10.75;100.00;100724.88;5018791;28;20025;-71
2023/08/31 03:25:09;;;;;;;27.42;20.80;;;;;;;10.70;100.00;100728.56;5023596;28;20048;-73
2023/08/31 03:27:35;;;;;;;25.90;21.25;;;;;;;10.68;100.00;100730.00;5023470;28;20033;-72
2023/08/31 03:30:01;;;;;;;29.63;21.65;;;;;;;10.61;100.00;100733.19;5020499;28;20033;-72
2023/08/31 03:32:26;;;;;;;27.23;21.00;;;;;;;10.54;100.00;100725.28;5021343;28;20088;-72
2023/08/31 03:34:52;;;;;;;28.80;21.95;;;;;;;10.52;100.00;100726.75;5011032;28;20025;-73
2023/08/31 03:37:17;;;;;;;28.75;22.50;;;;;;;10.48;100.00;100729.31;5020480;28;20120;-72
2023/08/31 03:39:43;;;;;;;28.90;21.77;;;;;;;10.43;100.00;100735.75;5024971;28;20491;-73
2023/08/31 03:42:09;;;;;;;28.83;23.17;;;;;;;10.39;100.00;100728.38;5027253;28;20504;-73
2023/08/31 03:44:35;;;;;;;31.13;24.02;;;;;;;10.35;100.00;100728.16;5020637;28;20033;-73
2023/08/31 03:47:00;;;;;;;31.65;24.70;;;;;;;10.30;100.00;100722.72;5022728;28;20097;-74
2023/08/31 03:49:26;;;;;;;30.92;24.25;;;;;;;10.28;100.00;100720.25;5020916;28;20342;-73
2023/08/31 03:51:53;;;;;;;31.45;25.13;;;;;;;10.26;100.00;100730.00;5019849;28;20052;-73
2023/08/31 03:54:18;;;;;;;30.38;24.63;;;;;;;10.24;100.00;100735.84;5023025;28;20473;-72
2023/08/31 03:56:44;;;;;;;32.55;26.52;;;;;;;10.23;100.00;100734.19;5023691;28;20060;-73
2023/08/31 03:59:09;;;;;;;31.13;24.27;;;;;;;10.21;100.00;100728.16;5021403;28;20460;-71
2023/08/31 04:01:34;;;;;;;31.38;24.42;;;;;;;10.19;100.00;100729.59;5025989;28;20108;-72
2023/08/31 04:04:00;;;;;;;30.08;24.05;;;;;;;10.13;100.00;100743.50;5030005;28;20039;-71
2023/08/31 04:06:25;;;;;;;32.00;24.75;;;;;;;10.09;100.00;100742.50;5026245;28;20547;-72
2023/08/31 04:08:51;;;;;;;31.40;24.63;;;;;;;10.06;100.00;100742.28;5026524;28;20038;-73
2023/08/31 04:11:16;;;;;;;31.30;25.00;;;;;;;10.00;100.00;100744.31;5030031;28;20053;-71
2023/08/31 04:13:41;;;;;;;30.40;25.15;;;;;;;9.92;100.00;100740.31;5026770;28;20064;-72
2023/08/31 04:16:07;;;;;;;31.98;25.10;;;;;;;9.88;100.00;100750.31;5027669;28;20025;-71
2023/08/31 04:18:32;;;;;;;32.22;25.05;;;;;;;9.82;100.00;100748.78;5028498;28;20061;-72
2023/08/31 04:20:59;;;;;;;31.02;25.27;;;;;;;9.80;100.00;100756.53;5029880;28;20057;-72
2023/08/31 04:23:24;;;;;;;32.30;26.25;;;;;;;9.80;100.00;100762.06;5026731;28;21031;-73
2023/08/31 04:25:51;;;;;;;32.03;25.15;;;;;;;9.77;100.00;100752.44;5027323;28;20041;-71
2023/08/31 04:28:16;;;;;;;31.35;24.98;;;;;;;9.79;100.00;100757.66;5026707;28;20466;-72
2023/08/31 04:30:43;;;;;;;33.33;26.67;;;;;;;9.74;100.00;100764.09;5026174;28;20045;-71
2023/08/31 04:33:08;;;;;;;32.00;24.95;;;;;;;9.71;100.00;100755.59;5027690;28;20153;-72
2023/08/31 04:35:34;;;;;;;31.95;25.58;;;;;;;9.68;100.00;100759.78;5009445;28;20112;-71
2023/08/31 04:37:59;;;;;;;31.33;25.50;;;;;;;9.66;100.00;100757.34;5027733;28;20044;-72
2023/08/31 04:40:25;;;;;;;32.83;25.98;;;;;;;9.68;100.00;100768.88;5034267;28;20063;-72
2023/08/31 04:42:51;;;;;;;36.13;27.02;;;;;;;9.69;100.00;100764.19;5026581;28;20393;-72
2023/08/31 04:45:16;;;;;;;32.70;25.65;;;;;;;9.69;100.00;100764.19;5025777;28;20056;-72
2023/08/31 04:47:42;;;;;;;32.17;26.00;;;;;;;9.76;100.00;100758.28;5029164;28;20495;-72
2023/08/31 04:50:08;;;;;;;32.33;26.05;;;;;;;9.79;100.00;100765.94;5025563;28;20030;-73
2023/08/31 04:52:34;;;;;;;33.30;26.33;;;;;;;9.78;100.00;100764.31;5030172;28;20575;-72
2023/08/31 04:55:03;;;;;;;32.30;25.25;;;;;;;9.80;100.00;100770.34;5033326;28;20037;-73
2023/08/31 04:57:29;;;;;;;31.35;25.25;;;;;;;9.80;100.00;100771.19;5031597;28;20045;-73
2023/08/31 04:59:54;;;;;;;32.03;25.23;;;;;;;9.81;100.00;100772.00;5026063;28;20033;-72
2023/08/31 05:02:20;;;;;;;31.45;24.58;;;;;;;9.87;100.00;100783.78;5030239;28;20737;-71
2023/08/31 05:04:45;;;;;;;32.00;23.10;;;;;;;9.94;100.00;100784.19;5029457;28;20083;-71
2023/08/31 05:07:10;;;;;;;28.83;22.20;;;;;;;9.97;100.00;100787.19;5028228;28;20357;-72
2023/08/31 05:09:36;;;;;;;28.98;22.27;;;;;;;10.04;100.00;100786.78;5028430;28;20029;-72
2023/08/31 05:12:05;;;;;;;29.55;21.77;;;;;;;10.14;100.00;100788.56;5029072;28;20488;-73
2023/08/31 05:14:30;;;;;;;30.48;21.67;;;;;;;10.23;100.00;100800.56;5021964;28;20079;-73
2023/08/31 05:16:56;;;;;;;29.05;21.63;;;;;;;10.32;100.00;100797.09;5021697;28;20041;-71
2023/08/31 05:19:21;;;;;;;28.10;20.40;;;;;;;10.38;100.00;100799.47;5023970;28;20499;-72
2023/08/31 05:21:47;;;;;;;28.17;20.45;;;;;;;10.47;100.00;100796.00;5023787;28;20101;-72
2023/08/31 05:24:12;;;;;;;26.63;19.83;;;;;;;10.47;100.00;100802.34;5028011;28;20033;-73
2023/08/31 05:26:39;;;;;;;31.20;19.75;;;;;;;10.45;100.00;100810.94;5025086;28;20098;-72
2023/08/31 05:29:05;;;;;;;25.58;18.73;;;;;;;10.47;100.00;100815.38;5024048;28;20613;-72
2023/08/31 05:31:30;;;;;;;25.77;18.98;;;;;;;10.45;100.00;100822.00;5023429;28;20038;-71
2023/08/31 05:33:55;;;;;;;26.33;19.63;;;;;;;10.47;100.00;100821.69;5022984;28;20034;-71
2023/08/31 05:36:21;;;;;;;27.83;18.60;;;;;;;10.48;100.00;100822.53;5022299;28;20119;-71
2023/08/31 05:38:46;;;;;;;25.23;19.02;;;;;;;10.47;100.00;100827.22;5024583;28;20048;-72
2023/08/31 05:41:12;;;;;;;26.17;19.42;;;;;;;10.47;100.00;100835.53;5027036;28;20029;-72
2023/08/31 05:43:41;;;;;;;24.92;18.55;;;;;;;10.47;100.00;100831.97;5026212;28;20086;-72
2023/08/31 05:46:07;;;;;;;25.30;18.77;;;;;;;10.48;100.00;100836.38;5021699;28;20038;-71
2023/08/31 05:48:34;;;;;;;26.63;18.55;;;;;;;10.51;100.00;100828.28;5025407;28;20122;-71
2023/08/31 05:50:59;;;;;;;24.83;18.15;;;;;;;10.54;100.00;100835.94;5020714;28;20083;-71
2023/08/31 05:53:24;;;;;;;24.80;18.08;;;;;;;10.59;100.00;100838.63;5023724;28;20412;-71
2023/08/31 05:55:50;;;;;;;25.08;18.27;;;;;;;10.60;100.00;100831.13;5027993;28;20034;-72
2023/08/31 05:58:15;;;;;;;24.60;17.88;;;;;;;10.67;100.00;100837.09;5024924;28;20042;-72
2023/08/31 06:00:41;;;;;;;24.58;17.75;;;;;;;10.72;100.00;100842.50;5021754;28;20453;-72
2023/08/31 06:03:06;;;;;;;25.67;17.17;;;;;;;10.78;100.00;100834.94;5023248;28;20034;-72
2023/08/31 06:05:32;;;;;;;24.67;17.88;;;;;;;10.84;100.00;100832.88;5021319;28;20033;-72
2023/08/31 06:07:58;;;;;;;22.55;17.20;;;;;;;10.89;100.00;100838.31;5021263;28;20026;-73
2023/08/31 06:10:24;;;;;;;23.70;17.58;;;;;;;10.93;100.00;100829.06;5027012;28;20044;-72
2023/08/31 06:12:52;;;;;;;24.80;17.00;;;;;;;11.01;100.00;100835.84;5023317;28;20036;-71
2023/08/31 06:15:18;;;;;;;23.58;16.83;;;;;;;11.06;100.00;100844.03;5020891;28;20041;-71
2023/08/31 06:17:44;;;;;;;23.13;17.17;;;;;;;11.13;100.00;100843.59;5020832;28;20026;-72
2023/08/31 06:20:10;;;;;;;23.55;16.60;;;;;;;11.19;100.00;100847.91;5021632;28;20041;-72
2023/08/31 06:22:35;;;;;;;23.30;16.50;;;;;;;11.24;100.00;100844.22;5022974;28;20021;-72
2023/08/31 06:25:01;;;;;;;22.98;16.65;;;;;;;11.19;100.00;100836.81;5027008;28;20382;-73
2023/08/31 06:27:26;;;;;;;22.77;16.88;;;;;;;11.36;100.00;100852.78;5029080;28;20040;-69
2023/08/31 06:29:51;;;;;;;22.55;16.52;;;;;;;11.42;100.00;100855.47;5021201;28;20025;-70
2023/08/31 06:32:18;;;;;;;23.27;17.23;;;;;;;11.42;100.00;100850.72;5021548;28;20037;-70
2023/08/31 06:34:43;;;;;;;22.90;17.02;;;;;;;11.48;100.00;100851.44;5027246;28;20036;-73
2023/08/31 06:37:09;;;;;;;24.60;15.93;;;;;;;11.55;100.00;100855.44;5022220;28;20431;-72
2023/08/31 06:39:35;;;;;;;23.65;16.60;;;;;;;11.61;100.00;100858.91;5025465;28;20044;-72
2023/08/31 06:42:01;;;;;;;23.52;16.63;;;;;;;11.68;100.00;100855.66;5026179;28;20074;-73
2023/08/31 06:44:26;;;;;;;23.88;16.30;;;;;;;11.73;100.00;100860.28;5023699;28;20033;-73
2023/08/31 06:46:51;;;;;;;23.25;15.57;;;;;;;11.80;100.00;100855.94;5023157;28;20685;-72
2023/08/31 06:49:17;;;;;;;22.45;16.02;;;;;;;11.89;100.00;100855.19;5020321;28;20048;-74
2023/08/31 06:51:43;;;;;;;23.80;16.40;;;;;;;11.97;100.00;100862.75;5024301;28;20091;-75
2023/08/31 06:54:08;;;;;;;22.63;16.40;;;;;;;12.04;100.00;100867.88;5021283;28;20541;-74
2023/08/31 06:56:35;;;;;;;21.77;16.00;;;;;;;12.12;100.00;100873.50;5027177;28;20457;-74
2023/08/31 06:59:01;;;;;;;21.35;15.07;;;;;;;12.21;100.00;100868.00;5028702;28;20040;-74
2023/08/31 07:01:27;;;;;;;22.27;16.00;;;;;;;12.32;100.00;100882.44;5030616;28;20029;-75
2023/08/31 07:03:53;;;;;;;23.17;16.27;;;;;;;12.41;100.00;100874.97;5029933;28;20060;-75
2023/08/31 07:06:18;;;;;;;23.23;15.73;;;;;;;12.51;100.00;100882.19;5028742;28;20033;-77
2023/08/31 07:08:45;;;;;;;22.30;15.25;;;;;;;12.64;100.00;100883.25;5022334;28;20104;-75
2023/08/31 07:11:11;;;;;;;22.13;15.55;;;;;;;12.75;100.00;100881.03;5026374;28;20125;-75
2023/08/31 07:13:36;;;;;;;21.10;14.85;;;;;;;12.83;100.00;100893.28;5028670;28;20029;-74
2023/08/31 07:16:02;;;;;;;22.13;15.60;;;;;;;12.84;100.00;100892.16;5029613;28;20053;-75
2023/08/31 07:18:28;;;;;;;21.67;15.25;;;;;;;12.88;100.00;100893.16;5027500;28;20026;-74
2023/08/31 07:20:53;;;;;;;22.17;15.70;;;;;;;12.91;100.00;100887.78;5027944;28;20052;-75
2023/08/31 07:23:18;;;;;;;22.98;15.23;;;;;;;12.94;100.00;100891.84;5027671;28;20030;-75
2023/08/31 07:25:44;;;;;;;22.05;15.20;;;;;;;12.99;100.00;100891.69;5024391;28;20026;-76
2023/08/31 07:28:10;;;;;;;23.23;16.23;;;;;;;13.02;100.00;100898.59;5026234;28;20060;-74
2023/08/31 07:30:36;;;;;;;23.67;16.45;;;;;;;13.07;100.00;100896.50;5030715;28;20034;-76
2023/08/31 07:33:03;;;;;;;22.45;14.70;;;;;;;13.16;100.00;100892.91;5032630;28;20093;-75
2023/08/31 07:35:29;;;;;;;23.17;15.43;;;;;;;13.22;100.00;100900.78;5031558;28;20022;-75
2023/08/31 07:37:55;;;;;;;20.92;14.88;;;;;;;13.28;100.00;100895.88;5031633;28;20025;-76
2023/08/31 07:40:20;;;;;;;23.33;14.57;;;;;;;13.37;100.00;100899.47;5031995;28;20480;-76
2023/08/31 07:42:45;;;;;;;22.48;15.68;;;;;;;13.47;100.00;100892.00;5029662;28;20030;-75
2023/08/31 07:45:11;;;;;;;22.75;15.18;;;;;;;13.51;100.00;100896.59;5032111;28;20038;-76
2023/08/31 07:47:36;;;;;;;22.17;15.30;;;;;;;13.62;100.00;100902.69;5034560;28;20017;-76
2023/08/31 07:50:02;;;;;;;21.95;15.05;;;;;;;13.68;100.00;100906.91;5031182;28;20069;-75
2023/08/31 07:52:27;;;;;;;22.23;15.25;;;;;;;13.73;100.00;100897.59;5024049;28;20060;-75
2023/08/31 07:54:53;;;;;;;23.40;14.88;;;;;;;13.78;100.00;100891.06;5023407;28;20029;-76
2023/08/31 07:57:19;;;;;;;21.45;14.88;;;;;;;13.89;100.00;100890.41;5023304;28;20033;-76
2023/08/31 07:59:44;;;;;;;22.63;14.88;;;;;;;13.98;100.00;100906.28;5023304;28;20041;-75
2023/08/31 08:02:09;;;;;;;22.08;14.77;;;;;;;14.03;100.00;100909.69;5025148;28;20041;-75
2023/08/31 08:04:35;;;;;;;20.63;14.65;;;;;;;14.10;100.00;100909.22;5025000;28;20037;-76
2023/08/31 08:07:00;;;;;;;22.17;15.05;;;;;;;14.19;100.00;100909.22;5028365;28;20025;-75
2023/08/31 08:09:26;;;;;;;22.27;15.05;;;;;;;14.18;100.00;100910.34;5027631;28;20133;-75
2023/08/31 08:11:51;;;;;;;21.10;14.90;;;;;;;14.27;100.00;100908.38;5027393;28;20044;-75
2023/08/31 08:14:16;;;;;;;23.08;14.75;;;;;;;14.38;100.00;100908.03;5023892;28;20068;-75
2023/08/31 08:16:42;;;;;;;23.17;14.20;;;;;;;14.44;100.00;100910.31;5025294;28;20821;-75
2023/08/31 08:19:07;;;;;;;22.92;14.55;;;;;;;14.49;100.00;100910.13;5023992;28;20785;-76
2023/08/31 08:21:33;;;;;;;21.60;14.23;;;;;;;14.60;100.00;100918.94;5023291;28;20029;-76
2023/08/31 08:23:58;;;;;;;22.25;14.45;;;;;;;14.72;100.00;100926.66;5023892;28;20038;-76
2023/08/31 08:26:24;;;;;;;21.30;14.60;;;;;;;14.79;100.00;100928.91;5024485;28;20041;-76
2023/08/31 08:28:50;;;;;;;22.80;14.90;;;;;;;14.82;100.00;100923.50;5025113;28;20108;-76
2023/08/31 08:31:15;;;;;;;21.98;14.05;;;;;;;14.89;100.00;100925.75;5028120;28;20460;-75
2023/08/31 08:33:41;;;;;;;22.77;14.85;;;;;;;15.02;100.00;100929.47;5024516;28;20038;-75
2023/08/31 08:36:06;;;;;;;21.80;15.07;;;;;;;15.08;100.00;100927.31;5031045;28;20057;-74
2023/08/31 08:38:31;;;;;;;22.42;14.15;;;;;;;15.17;100.00;100924.50;5032461;28;20055;-75
2023/08/31 08:40:57;;;;;;;21.75;14.25;;;;;;;15.25;100.00;100929.19;5032937;28;20034;-74
2023/08/31 08:43:26;;;;;;;23.63;14.80;;;;;;;15.37;100.00;100928.47;5031790;28;20124;-75
2023/08/31 08:45:53;;;;;;;21.80;15.02;;;;;;;15.43;100.00;100927.94;5032850;28;20068;-76
2023/08/31 08:48:20;;;;;;;21.73;13.77;;;;;;;15.52;100.00;100930.69;5032667;28;20477;-77
2023/08/31 08:50:49;;;;;;;21.15;14.43;;;;;;;15.55;100.00;100938.34;5031685;28;20393;-77
2023/08/31 08:53:15;;;;;;;21.77;14.10;;;;;;;15.69;100.00;100940.09;5034019;28;20083;-76
2023/08/31 08:55:43;;;;;;;24.80;13.98;;;;;;;15.86;100.00;100939.19;5031149;28;20061;-76
2023/08/31 08:58:09;;;;;;;20.95;13.77;;;;;;;15.98;100.00;100947.59;5030754;28;20029;-75
2023/08/31 09:00:35;;;;;;;20.73;13.50;;;;;;;16.11;100.00;100936.50;5033049;28;20033;-76
2023/08/31 09:03:03;;;;;;;21.70;13.63;;;;;;;16.22;100.00;100927.38;5032183;28;20040;-75
2023/08/31 09:05:34;;;;;;;21.40;13.80;;;;;;;16.34;100.00;100931.38;5032986;28;20034;-75
2023/08/31 09:08:09;;;;;;;20.70;13.30;;;;;;;16.47;100.00;100941.44;5034411;28;20037;-75
2023/08/31 09:10:40;;;;;;;22.67;12.57;;;;;;;16.54;100.00;100940.84;5032955;28;20056;-74
2023/08/31 09:13:08;;;;;;;21.02;13.30;;;;;;;16.59;100.00;100928.63;5029038;28;20057;-74
2023/08/31 09:15:39;;;;;;;20.02;12.75;;;;;;;16.63;98.83;100930.38;5019162;28;20037;-75
2023/08/31 09:18:04;;;;;;;21.63;12.80;;;;;;;16.74;98.13;100946.72;5018354;28;20067;-74
2023/08/31 09:20:30;;;;;;;21.27;12.57;;;;;;;16.78;98.91;100944.88;5028653;28;20520;-75
2023/08/31 09:22:56;;;;;;;21.17;12.80;;;;;;;16.91;99.82;100940.91;5038105;28;20084;-74
2023/08/31 09:25:21;;;;;;;20.80;12.32;;;;;;;17.08;97.24;100945.50;5017080;28;20041;-75
2023/08/31 09:27:47;;;;;;;20.20;12.10;;;;;;;17.16;96.38;100935.41;5017275;28;20030;-74
2023/08/31 09:30:13;;;;;;;20.27;11.23;;;;;;;17.18;90.80;100946.22;5018639;28;20438;-73
2023/08/31 09:32:38;;;;;;;19.42;11.20;;;;;;;17.23;90.80;100946.00;5018613;28;20036;-75
2023/08/31 09:35:08;;;;;;;19.40;11.88;;;;;;;17.23;87.45;100946.81;5018796;28;20021;-74
2023/08/31 09:37:34;;;;;;;20.63;12.52;;;;;;;17.35;86.99;100948.78;5018667;28;20106;-74
2023/08/31 09:40:03;;;;;;;18.88;11.65;;;;;;;17.57;86.35;100943.88;5017927;28;20056;-73
2023/08/31 09:42:50;;;;;;;19.77;11.77;;;;;;;17.87;88.53;100949.97;5018377;28;20030;-73
2023/08/31 09:45:17;;;;;;;19.10;11.98;;;;;;;17.99;85.22;100935.19;5017509;28;20041;-75
2023/08/31 09:47:43;;;;;;;20.08;11.55;;;;;;;18.17;83.10;100951.69;5017625;28;20064;-75
2023/08/31 09:50:10;;;;;;;19.83;11.68;;;;;;;18.11;80.91;100953.09;5018127;28;20026;-76
2023/08/31 09:52:37;;;;;;;18.10;11.30;;;;;;;18.11;79.43;100953.91;5017861;28;20180;-76
2023/08/31 09:55:04;;;;;;;20.45;11.50;;;;;;;18.08;79.57;100958.25;5018415;28;20040;-75
2023/08/31 09:57:30;;;;;;;18.27;11.10;;;;;;;18.05;81.36;100947.75;5023149;28;20060;-76
2023/08/31 09:59:57;;;;;;;20.90;12.63;;;;;;;18.06;81.89;100952.19;5037400;28;20025;-76
2023/08/31 10:02:24;;;;;;;19.48;12.38;;;;;;;18.13;83.46;100948.78;5038061;28;20037;-75
2023/08/31 10:04:52;;;;;;;17.10;10.35;;;;;;;18.21;77.38;100959.03;5038135;28;20041;-75
2023/08/31 10:07:19;;;;;;;20.75;10.50;;;;;;;18.12;76.15;100954.72;5037336;28;20029;-75
2023/08/31 10:09:48;;;;;;;18.38;10.43;;;;;;;17.98;77.50;100961.53;5032935;28;20030;-76
2023/08/31 10:12:14;;;;;;;17.20;10.05;;;;;;;17.82;76.48;100961.44;5020224;28;20030;-75
2023/08/31 10:14:39;;;;;;;17.65;10.60;;;;;;;17.94;77.09;100952.19;5033455;28;20109;-74
2023/08/31 10:17:05;;;;;;;17.00;10.77;;;;;;;18.11;76.17;100967.09;5009485;28;20045;-75
2023/08/31 10:19:31;;;;;;;16.73;10.57;;;;;;;18.34;76.51;100950.53;5026841;28;20091;-74
2023/08/31 10:22:00;;;;;;;18.73;10.50;;;;;;;18.43;75.89;100948.41;5037493;28;20034;-74
2023/08/31 10:25:00;;;;;;;17.33;11.10;;;;;;;18.48;79.29;100950.13;5038043;28;20037;-77
2023/08/31 10:27:26;;;;;;;19.15;11.75;;;;;;;18.47;78.04;100948.50;5037362;28;20132;-75
2023/08/31 10:29:52;;;;;;;18.27;11.30;;;;;;;18.46;77.00;100947.69;5036472;28;20435;-76
2023/08/31 10:32:21;;;;;;;18.77;11.90;;;;;;;18.45;76.31;100942.47;5036592;28;20516;-74
2023/08/31 10:35:08;;;;;;;19.95;11.18;;;;;;;18.49;76.88;100923.75;5034691;28;20429;-73
2023/08/31 10:37:33;;;;;;;16.08;10.70;;;;;;;18.54;74.46;100927.09;5036069;28;20029;-73
2023/08/31 10:40:12;;;;;;;20.63;10.93;;;;;;;18.65;75.46;100930.22;5036144;28;20034;-74
2023/08/31 10:42:44;;;;;;;14.95;9.93;;;;;;;18.62;71.49;100932.91;5037191;28;20048;-74
2023/08/31 10:45:10;;;;;;;16.15;10.23;;;;;;;18.65;70.92;100929.38;5033996;28;20022;-74
2023/08/31 10:47:40;;;;;;;17.90;10.43;;;;;;;18.77;70.59;100936.88;5017575;28;20496;-74
2023/08/31 10:50:21;;;;;;;17.35;10.60;;;;;;;19.00;72.02;100940.75;5019347;28;20052;-74
2023/08/31 10:52:46;;;;;;;17.33;10.18;;;;;;;19.22;69.28;100946.06;5022358;28;20461;-71
2023/08/31 10:55:11;;;;;;;18.25;10.10;;;;;;;19.27;69.81;100938.19;5014747;28;20116;-74
2023/08/31 10:57:37;;;;;;;17.08;10.32;;;;;;;19.31;69.98;100927.88;5016229;28;20084;-73
2023/08/31 11:00:03;;;;;;;17.60;10.52;;;;;;;19.37;67.17;100928.38;5015976;28;20043;-73
2023/08/31 11:02:33;;;;;;;17.75;10.27;;;;;;;19.39;67.04;100933.66;5015944;28;20033;-72